Time;durP1;ratioP1;P1;durP2;ratioP2;P2;SDS_P1;SDS_P2;PMS_P1;PMS_P2;Temp;Humidity;BMP_temperature;BMP_pressure;BME280_temperature;BME280_humidity;BME280_pressure;Samples;Min_cycle;Max_cycle;Signal;HPM_P1;HPM_P2
2023/09/27 00:00:57;;;;;;;1.15;1.05;;;;;;;17.50;nan;61374.97;5035355;28;20239;-66
2023/09/27 00:03:26;;;;;;;1.00;1.00;;;;;;;17.52;nan;61354.56;5035095;28;20263;-63
2023/09/27 00:05:53;;;;;;;1.40;1.30;;;;;;;17.44;nan;61394.00;5034829;28;20215;-62
2023/09/27 00:08:22;;;;;;;1.23;1.15;;;;;;;17.56;nan;61382.31;5034735;28;20191;-61
2023/09/27 00:11:21;;;;;;;1.65;1.23;;;;;;;17.61;nan;61449.44;5034739;28;20162;-63
2023/09/27 00:13:47;;;;;;;2.00;1.23;;;;;;;17.27;nan;61450.25;5034837;28;20181;-61
2023/09/27 00:16:12;;;;;;;1.08;1.00;;;;;;;17.18;nan;61458.13;5034272;28;20262;-61
2023/09/27 00:18:38;;;;;;;1.48;1.17;;;;;;;17.28;nan;61368.75;5034307;28;20172;-61
2023/09/27 00:21:03;;;;;;;1.65;1.30;;;;;;;17.15;nan;61338.56;5034719;28;20234;-62
2023/09/27 00:23:28;;;;;;;1.30;1.20;;;;;;;16.98;nan;61259.97;5033687;28;20178;-61
2023/09/27 00:25:54;;;;;;;0.82;0.82;;;;;;;17.00;nan;61220.97;5033542;28;20294;-61
2023/09/27 00:28:19;;;;;;;1.48;1.17;;;;;;;16.79;nan;61169.44;5034495;28;20179;-61
2023/09/27 00:30:45;;;;;;;1.17;1.08;;;;;;;16.87;nan;61229.50;5034089;28;20220;-61
2023/09/27 00:33:10;;;;;;;0.90;0.90;;;;;;;16.85;nan;61160.16;5033027;28;20228;-61
2023/09/27 00:35:35;;;;;;;1.65;1.52;;;;;;;16.91;nan;61268.13;5034126;28;20674;-62
2023/09/27 00:38:01;;;;;;;1.00;1.00;;;;;;;16.59;nan;61157.78;5033844;28;20164;-60
2023/09/27 00:40:28;;;;;;;1.00;1.00;;;;;;;16.67;nan;61300.94;5034117;28;20186;-62
2023/09/27 00:42:53;;;;;;;4.53;2.15;;;;;;;16.39;nan;61096.53;5033889;28;20213;-61
2023/09/27 00:45:19;;;;;;;2.50;1.25;;;;;;;16.54;nan;61183.06;5034160;28;20286;-61
2023/09/27 00:47:47;;;;;;;1.20;1.08;;;;;;;16.38;nan;61241.81;5033971;28;20542;-62
2023/09/27 00:50:13;;;;;;;1.05;1.02;;;;;;;16.58;nan;61171.56;5034079;28;20597;-61
2023/09/27 00:52:40;;;;;;;1.75;1.15;;;;;;;16.58;nan;61123.13;5033408;28;20634;-61
2023/09/27 00:55:11;;;;;;;1.25;1.15;;;;;;;16.53;nan;61166.47;5033617;28;20297;-62
2023/09/27 00:57:36;;;;;;;1.08;1.02;;;;;;;16.22;nan;61043.91;5033418;28;20269;-62
2023/09/27 01:00:03;;;;;;;4.72;1.95;;;;;;;16.31;nan;61072.06;5033633;28;20187;-61
2023/09/27 01:02:28;;;;;;;1.65;1.38;;;;;;;16.14;nan;60983.91;5033798;28;20189;-61
2023/09/27 01:04:53;;;;;;;0.98;0.95;;;;;;;16.13;nan;61044.63;5031844;28;20356;-61
2023/09/27 01:07:20;;;;;;;0.90;0.90;;;;;;;16.11;nan;61060.41;5036508;28;20183;-61
2023/09/27 01:09:45;;;;;;;1.60;1.30;;;;;;;16.12;nan;60973.38;5032949;28;20175;-61
2023/09/27 01:12:11;;;;;;;1.20;1.00;;;;;;;16.20;nan;61091.16;5031796;28;20179;-62
2023/09/27 01:14:36;;;;;;;1.05;1.02;;;;;;;16.34;nan;61023.88;5032810;28;20222;-62
2023/09/27 01:17:09;;;;;;;1.25;1.20;;;;;;;16.20;nan;61114.38;5040028;28;20202;-62
2023/09/27 01:19:35;;;;;;;1.15;1.05;;;;;;;16.11;nan;60998.56;5030352;28;20187;-61
2023/09/27 01:22:01;;;;;;;0.85;0.85;;;;;;;16.29;nan;61031.72;5032183;28;20167;-62
2023/09/27 01:24:30;;;;;;;1.20;1.20;;;;;;;16.26;nan;61072.16;5030876;28;21569;-62
2023/09/27 01:26:57;;;;;;;1.27;1.08;;;;;;;16.32;nan;60993.28;5031483;28;20297;-61
2023/09/27 01:29:22;;;;;;;1.40;1.27;;;;;;;16.27;nan;61008.28;5031619;28;20187;-62
2023/09/27 01:31:48;;;;;;;1.00;1.00;;;;;;;16.05;nan;60937.69;5031948;28;20180;-62
2023/09/27 01:34:13;;;;;;;1.60;1.50;;;;;;;16.29;nan;61000.22;5040755;28;20187;-61
2023/09/27 01:36:39;;;;;;;1.45;1.35;;;;;;;16.18;nan;61026.50;5041751;28;20206;-61
2023/09/27 01:39:07;;;;;;;1.35;1.25;;;;;;;16.09;nan;61238.00;5031866;28;20183;-61
2023/09/27 01:41:32;;;;;;;1.90;1.17;;;;;;;15.99;nan;60941.28;5034331;28;20259;-61
2023/09/27 01:43:57;;;;;;;1.27;1.20;;;;;;;15.87;nan;60999.91;5043928;28;20218;-61
2023/09/27 01:46:23;;;;;;;3.50;1.67;;;;;;;15.98;nan;61009.16;5031163;28;20256;-61
2023/09/27 01:48:50;;;;;;;0.98;0.98;;;;;;;15.77;nan;61055.59;5038883;28;20234;-61
2023/09/27 01:51:16;;;;;;;1.83;1.10;;;;;;;15.95;nan;60998.06;5041033;28;20705;-61
2023/09/27 01:53:41;;;;;;;1.30;1.20;;;;;;;15.90;nan;60965.22;5041061;28;20210;-61
2023/09/27 01:56:07;;;;;;;1.83;1.35;;;;;;;15.85;nan;61013.13;5032127;28;20254;-61
2023/09/27 01:58:32;;;;;;;1.30;1.20;;;;;;;15.57;nan;60830.28;5030846;28;20302;-61
2023/09/27 02:00:59;;;;;;;1.42;1.33;;;;;;;15.79;nan;60978.03;5037950;28;20191;-61
2023/09/27 02:03:24;;;;;;;2.22;1.70;;;;;;;15.85;nan;61098.69;5033256;28;20266;-62
2023/09/27 02:05:52;;;;;;;1.40;1.30;;;;;;;15.89;nan;60910.00;5034257;28;20199;-61
2023/09/27 02:08:17;;;;;;;1.55;1.45;;;;;;;15.62;nan;60823.00;5041892;28;20667;-62
2023/09/27 02:10:43;;;;;;;1.27;1.23;;;;;;;15.77;nan;60880.47;5043247;28;20190;-61
2023/09/27 02:13:08;;;;;;;1.55;1.45;;;;;;;15.74;nan;61026.47;5037668;28;20186;-61
2023/09/27 02:15:34;;;;;;;1.50;1.30;;;;;;;15.73;nan;60778.69;5029589;28;20304;-60
2023/09/27 02:17:59;;;;;;;1.15;1.10;;;;;;;15.55;nan;60699.31;5045846;28;20175;-62
2023/09/27 02:20:24;;;;;;;1.60;1.40;;;;;;;15.86;nan;60803.56;5035009;28;20642;-61
2023/09/27 02:22:50;;;;;;;1.30;0.98;;;;;;;15.89;nan;60830.13;5032781;28;20159;-62
2023/09/27 02:25:16;;;;;;;1.35;1.17;;;;;;;15.89;nan;61056.25;5051267;28;20201;-61
2023/09/27 02:27:42;;;;;;;1.48;1.38;;;;;;;15.89;nan;60842.44;5046086;28;20665;-61
2023/09/27 02:30:12;;;;;;;1.88;1.30;;;;;;;15.78;nan;61005.22;5031129;28;20191;-61
2023/09/27 02:32:40;;;;;;;2.28;1.55;;;;;;;15.74;nan;60797.28;5030668;28;20631;-60
2023/09/27 02:35:06;;;;;;;1.33;1.23;;;;;;;15.54;nan;60860.34;5037940;28;20668;-61
2023/09/27 02:37:32;;;;;;;1.65;1.40;;;;;;;15.71;nan;60786.75;5039596;28;20187;-61
2023/09/27 02:39:58;;;;;;;2.03;1.67;;;;;;;15.70;nan;60834.00;5045011;28;20170;-61
2023/09/27 02:42:24;;;;;;;1.90;1.55;;;;;;;15.70;nan;60770.19;5034597;28;20199;-62
2023/09/27 02:44:50;;;;;;;1.52;1.42;;;;;;;15.66;nan;60716.78;5031612;28;20209;-61
2023/09/27 02:47:16;;;;;;;1.35;1.25;;;;;;;15.48;nan;60764.09;5035605;28;20183;-62
2023/09/27 02:49:41;;;;;;;3.05;1.17;;;;;;;15.68;nan;60682.97;5034273;28;20265;-61
2023/09/27 02:52:06;;;;;;;2.40;2.10;;;;;;;15.81;nan;60663.50;5034267;28;20180;-61
2023/09/27 02:54:33;;;;;;;2.95;1.58;;;;;;;15.91;nan;60731.91;5030273;28;20646;-62
2023/09/27 02:56:58;;;;;;;1.50;1.35;;;;;;;15.98;nan;60754.09;5039937;28;20215;-61
2023/09/27 02:59:24;;;;;;;1.35;1.25;;;;;;;15.87;nan;60693.38;5044334;28;20193;-61
2023/09/27 03:01:49;;;;;;;1.00;1.00;;;;;;;15.79;nan;60703.03;5043384;28;20714;-61
2023/09/27 03:04:17;;;;;;;2.00;1.20;;;;;;;15.57;nan;60590.84;5033391;28;20195;-61
2023/09/27 03:06:43;;;;;;;1.42;1.30;;;;;;;15.75;nan;60491.97;5034244;28;20179;-61
2023/09/27 03:09:11;;;;;;;2.17;1.60;;;;;;;15.63;nan;60450.25;5041887;28;20171;-63
2023/09/27 03:11:37;;;;;;;4.97;1.45;;;;;;;15.47;nan;60420.63;5041881;28;20195;-62
2023/09/27 03:14:04;;;;;;;2.17;1.75;;;;;;;15.63;nan;60439.97;5040745;28;20604;-63
2023/09/27 03:16:29;;;;;;;1.20;1.10;;;;;;;15.57;nan;60386.94;5046822;28;20492;-62
2023/09/27 03:18:54;;;;;;;1.50;1.40;;;;;;;15.32;nan;60329.25;5035256;28;20171;-62
2023/09/27 03:21:21;;;;;;;1.63;1.38;;;;;;;15.42;nan;60224.59;5037901;28;20183;-63
2023/09/27 03:23:47;;;;;;;2.22;1.70;;;;;;;15.33;nan;60260.34;5031763;28;20191;-61
2023/09/27 03:26:12;;;;;;;1.52;1.25;;;;;;;15.30;nan;60257.56;5034077;28;20199;-61
2023/09/27 03:28:38;;;;;;;1.45;1.35;;;;;;;15.38;nan;60122.38;5045336;28;20183;-61
2023/09/27 03:31:05;;;;;;;1.30;1.08;;;;;;;15.26;nan;60026.72;5042135;28;20183;-61
2023/09/27 03:33:31;;;;;;;1.27;1.17;;;;;;;13.42;nan;60404.16;5034272;28;20176;-60
2023/09/27 03:35:57;;;;;;;2.33;1.88;;;;;;;15.49;nan;59745.44;5033843;28;20184;-63
2023/09/27 03:38:22;;;;;;;2.78;1.05;;;;;;;15.25;nan;59629.47;5033319;28;20211;-61
2023/09/27 03:40:48;;;;;;;1.23;1.13;;;;;;;15.44;nan;59510.91;5037714;28;20178;-62
2023/09/27 03:43:14;;;;;;;1.73;1.40;;;;;;;15.22;nan;59410.09;5043961;28;20215;-63
2023/09/27 03:45:48;;;;;;;1.52;1.42;;;;;;;15.18;nan;59102.22;5034476;28;20199;-64
2023/09/27 03:48:15;;;;;;;1.55;1.40;;;;;;;15.20;nan;58980.44;5037070;28;20187;-63
2023/09/27 03:50:40;;;;;;;1.92;1.27;;;;;;;15.24;nan;58683.94;5040226;28;20174;-61
2023/09/27 03:53:06;;;;;;;2.10;1.40;;;;;;;15.32;nan;58630.91;5033895;28;20183;-62
2023/09/27 03:55:31;;;;;;;1.33;1.23;;;;;;;15.29;nan;58583.94;5040780;28;20188;-61
2023/09/27 03:57:57;;;;;;;1.17;1.17;;;;;;;15.28;nan;58521.13;5047189;28;20170;-61
2023/09/27 04:00:22;;;;;;;1.52;1.42;;;;;;;15.23;nan;58505.41;5037273;28;20548;-62
2023/09/27 04:02:48;;;;;;;1.58;1.45;;;;;;;15.17;nan;58370.34;5037329;28;20175;-62
2023/09/27 04:05:15;;;;;;;1.17;1.08;;;;;;;15.25;nan;58199.56;5037047;28;20210;-63
2023/09/27 04:07:41;;;;;;;2.38;1.58;;;;;;;15.26;nan;58053.56;5040591;28;20625;-61
2023/09/27 04:10:08;;;;;;;2.10;1.73;;;;;;;15.00;nan;58178.28;5048128;28;20186;-62
2023/09/27 04:12:34;;;;;;;1.52;1.30;;;;;;;14.97;nan;58108.22;5036369;28;20191;-62
2023/09/27 04:15:00;;;;;;;3.08;1.50;;;;;;;15.10;nan;57759.28;5033005;28;20642;-62
2023/09/27 04:17:26;;;;;;;1.80;1.58;;;;;;;15.30;nan;58253.84;5032045;28;20175;-62
2023/09/27 04:19:53;;;;;;;2.58;2.08;;;;;;;15.12;nan;57954.19;5032242;28;20266;-61
2023/09/27 04:22:19;;;;;;;2.00;1.80;;;;;;;15.33;nan;58187.09;5030740;28;20175;-63
2023/09/27 04:24:45;;;;;;;1.40;1.13;;;;;;;15.11;nan;58114.53;5031774;28;20203;-61
2023/09/27 04:27:10;;;;;;;2.10;1.33;;;;;;;15.29;nan;57943.66;5032253;28;20181;-62
2023/09/27 04:29:36;;;;;;;1.65;1.35;;;;;;;15.08;nan;57882.53;5049836;28;20229;-65
2023/09/27 04:32:01;;;;;;;1.35;1.25;;;;;;;15.30;nan;57703.03;5034231;28;20184;-62
2023/09/27 04:34:26;;;;;;;1.95;1.85;;;;;;;15.14;nan;57570.25;5037440;28;20171;-61
2023/09/27 04:36:53;;;;;;;1.55;1.42;;;;;;;15.20;nan;57383.88;5052877;28;20171;-62
2023/09/27 04:39:19;;;;;;;2.20;1.77;;;;;;;15.16;nan;57335.94;5053300;28;20155;-60
2023/09/27 04:41:46;;;;;;;3.92;1.45;;;;;;;15.45;nan;57187.34;5053169;28;20549;-62
2023/09/27 04:44:13;;;;;;;1.45;1.20;;;;;;;15.31;nan;57210.50;5052934;28;20179;-61
2023/09/27 04:46:38;;;;;;;1.35;1.10;;;;;;;15.44;nan;57237.69;5053168;28;20182;-62
2023/09/27 04:49:04;;;;;;;1.85;1.35;;;;;;;15.71;nan;57399.66;5052520;28;20319;-63
2023/09/27 04:51:29;;;;;;;1.98;1.73;;;;;;;12.96;nan;57301.84;5038613;28;20171;-61
2023/09/27 04:54:00;;;;;;;2.58;2.10;;;;;;;16.00;nan;57697.19;5032669;28;20182;-60
2023/09/27 04:56:26;;;;;;;1.48;1.38;;;;;;;16.03;nan;58354.25;5031489;28;20227;-61
2023/09/27 04:58:51;;;;;;;1.48;1.38;;;;;;;16.18;nan;58993.72;5043042;28;20325;-61
2023/09/27 05:01:17;;;;;;;2.25;1.50;;;;;;;16.56;nan;59789.84;5039107;28;20187;-62
2023/09/27 05:03:43;;;;;;;1.30;1.20;;;;;;;16.47;nan;60205.22;5032913;28;20542;-61
2023/09/27 05:06:08;;;;;;;2.70;1.40;;;;;;;16.49;nan;60218.31;5050976;28;20217;-61
2023/09/27 05:08:34;;;;;;;1.60;1.40;;;;;;;16.76;nan;60279.31;5052930;28;20182;-60
2023/09/27 05:10:59;;;;;;;1.52;1.42;;;;;;;16.93;nan;60462.78;5052990;28;20175;-61
2023/09/27 05:13:25;;;;;;;2.30;2.13;;;;;;;16.92;nan;60755.25;5042938;28;20181;-60
2023/09/27 05:15:53;;;;;;;1.35;1.25;;;;;;;17.16;nan;60766.63;5032421;28;20170;-61
2023/09/27 05:18:20;;;;;;;1.73;1.63;;;;;;;16.73;nan;60892.41;5032097;28;20186;-62
2023/09/27 05:20:45;;;;;;;1.48;1.35;;;;;;;17.19;nan;61188.75;5032028;28;20190;-61
2023/09/27 05:23:14;;;;;;;2.47;1.23;;;;;;;17.20;nan;60988.50;5031348;28;20266;-61
2023/09/27 05:25:40;;;;;;;1.30;1.20;;;;;;;17.12;nan;61015.09;5044579;28;20294;-62
2023/09/27 05:28:05;;;;;;;3.15;2.50;;;;;;;17.44;nan;60994.28;5041880;28;20180;-62
2023/09/27 05:30:31;;;;;;;1.67;1.20;;;;;;;17.29;nan;60982.03;5032390;28;20171;-62
2023/09/27 05:32:56;;;;;;;1.38;1.08;;;;;;;17.62;nan;61058.44;5051893;28;20169;-64
2023/09/27 05:35:22;;;;;;;1.52;1.23;;;;;;;17.43;nan;61196.63;5050620;28;20300;-62
2023/09/27 05:37:49;;;;;;;1.35;1.25;;;;;;;17.93;nan;61151.66;5050847;28;20179;-65
2023/09/27 05:40:14;;;;;;;1.73;1.23;;;;;;;18.13;nan;61375.84;5050606;28;20163;-64
2023/09/27 05:42:40;;;;;;;1.90;1.60;;;;;;;18.30;nan;61197.97;5050129;28;20639;-61
2023/09/27 05:45:15;;;;;;;0.90;0.90;;;;;;;18.64;nan;61510.03;5050058;28;20687;-61
2023/09/27 05:47:41;;;;;;;1.20;1.10;;;;;;;19.03;nan;61349.63;5050099;28;20194;-62
2023/09/27 05:50:13;;;;;;;1.38;1.27;;;;;;;19.03;nan;61365.19;5051370;28;20199;-61
2023/09/27 05:52:43;;;;;;;1.52;1.33;;;;;;;19.45;nan;61621.41;5052167;28;20603;-63
2023/09/27 05:55:09;;;;;;;1.55;1.23;;;;;;;19.72;nan;61672.75;5052152;28;20182;-64
2023/09/27 05:57:34;;;;;;;1.52;1.42;;;;;;;19.60;nan;61744.69;5052022;28;20309;-61
2023/09/27 06:00:00;;;;;;;2.35;2.15;;;;;;;19.99;nan;61661.31;5050485;28;20170;-62
2023/09/27 06:02:30;;;;;;;1.77;1.38;;;;;;;20.01;nan;61731.03;5051985;28;20583;-62
2023/09/27 06:04:58;;;;;;;2.25;1.27;;;;;;;20.11;nan;61757.94;5051502;28;20679;-62
2023/09/27 06:07:23;;;;;;;1.48;1.38;;;;;;;19.95;nan;61706.63;5052131;28;20233;-65
2023/09/27 06:09:50;;;;;;;1.75;1.55;;;;;;;20.24;nan;61620.19;5052814;28;20171;-64
2023/09/27 06:12:15;;;;;;;1.20;1.10;;;;;;;;;;5052310;28;20190;-65
2023/09/27 06:14:43;;;;;;;1.60;1.15;;;;;;;20.73;nan;61721.91;5052025;28;20171;-63
2023/09/27 06:17:10;;;;;;;4.90;1.58;;;;;;;20.93;nan;61720.06;5052305;28;20174;-64
2023/09/27 06:19:36;;;;;;;1.52;0.80;;;;;;;20.93;nan;61727.88;5052605;28;20179;-59
2023/09/27 06:22:04;;;;;;;1.13;1.05;;;;;;;21.03;nan;61773.56;5050607;28;20563;-63
2023/09/27 06:24:30;;;;;;;0.90;0.90;;;;;;;21.33;nan;61783.09;5052146;28;20220;-63
2023/09/27 06:26:55;;;;;;;1.17;1.00;;;;;;;21.36;nan;61833.88;5052082;28;20181;-61
2023/09/27 06:29:21;;;;;;;1.55;1.42;;;;;;;21.74;nan;61870.69;5052339;28;20640;-63
2023/09/27 06:31:49;;;;;;;1.90;1.02;;;;;;;21.89;nan;61859.69;5050644;28;20178;-63
2023/09/27 06:34:15;;;;;;;1.20;1.10;;;;;;;21.83;nan;61897.09;5051734;28;20601;-63
2023/09/27 06:36:42;;;;;;;1.27;1.17;;;;;;;21.87;nan;61883.44;5051562;28;20167;-63
2023/09/27 06:39:12;;;;;;;1.30;1.20;;;;;;;22.14;nan;62027.53;5052083;28;20178;-64
2023/09/27 06:41:39;;;;;;;2.97;1.73;;;;;;;22.39;nan;62160.16;5051712;28;20158;-65
2023/09/27 06:44:04;;;;;;;1.98;1.23;;;;;;;22.34;nan;61910.25;5051662;28;20221;-62
2023/09/27 06:46:32;;;;;;;1.42;1.33;;;;;;;22.20;nan;62164.50;5052050;28;20171;-62
2023/09/27 06:48:58;;;;;;;1.08;0.90;;;;;;;22.29;nan;61927.44;5052320;28;20247;-64
2023/09/27 06:51:24;;;;;;;1.08;1.05;;;;;;;22.26;nan;61937.06;5051673;28;20175;-64
2023/09/27 06:53:50;;;;;;;1.30;1.00;;;;;;;22.41;nan;62047.84;5051424;28;20175;-61
2023/09/27 06:56:15;;;;;;;1.35;1.25;;;;;;;22.16;nan;61936.09;5051268;28;20268;-63
2023/09/27 06:58:40;;;;;;;1.52;0.95;;;;;;;22.34;nan;61990.41;5051374;28;20220;-63
2023/09/27 07:01:07;;;;;;;1.10;1.00;;;;;;;22.35;nan;61978.53;5051272;28;20191;-64
2023/09/27 07:03:36;;;;;;;1.20;1.00;;;;;;;22.42;nan;62069.84;5051774;28;20236;-64
2023/09/27 07:06:02;;;;;;;1.38;1.10;;;;;;;22.42;nan;62007.91;5051292;28;20194;-63
2023/09/27 07:08:28;;;;;;;1.00;0.90;;;;;;;22.38;nan;62039.25;5051118;28;20171;-63
2023/09/27 07:10:53;;;;;;;1.15;0.98;;;;;;;22.86;nan;62009.97;5051647;28;20678;-63
2023/09/27 07:13:18;;;;;;;3.00;1.35;;;;;;;22.75;nan;61966.75;5051522;28;20641;-63
2023/09/27 07:15:45;;;;;;;2.25;1.30;;;;;;;22.79;nan;62116.66;5051805;28;20174;-61
2023/09/27 07:18:11;;;;;;;1.38;1.10;;;;;;;22.85;nan;62124.03;5052315;28;20182;-62
2023/09/27 07:20:36;;;;;;;2.38;1.30;;;;;;;23.20;nan;62089.81;5051365;28;20170;-62
2023/09/27 07:23:07;;;;;;;1.00;0.90;;;;;;;23.30;nan;62072.53;5051581;28;20171;-63
2023/09/27 07:25:36;;;;;;;1.98;1.80;;;;;;;23.31;nan;62065.81;5051109;28;20211;-64
2023/09/27 07:28:03;;;;;;;1.10;1.00;;;;;;;23.12;nan;62192.81;5051608;28;20175;-61
2023/09/27 07:30:29;;;;;;;1.15;1.05;;;;;;;23.04;nan;62022.06;5051225;28;20159;-64
2023/09/27 07:32:55;;;;;;;1.20;1.10;;;;;;;23.31;nan;62071.03;5051019;28;20229;-63
2023/09/27 07:35:21;;;;;;;0.90;0.90;;;;;;;23.54;nan;62110.28;5051927;28;20216;-64
2023/09/27 07:37:47;;;;;;;1.13;1.02;;;;;;;23.53;nan;62113.81;5051460;28;20231;-65
2023/09/27 07:40:14;;;;;;;1.88;1.23;;;;;;;23.52;nan;62209.19;5050961;28;20178;-62
2023/09/27 07:42:43;;;;;;;1.23;1.08;;;;;;;23.76;nan;62096.22;5052608;28;20189;-63
2023/09/27 07:45:25;;;;;;;2.60;1.85;;;;;;;23.46;nan;62066.69;5054792;28;20198;-63
2023/09/27 07:47:53;;;;;;;1.17;1.02;;;;;;;23.65;nan;62334.19;5054542;28;20640;-62
2023/09/27 07:50:27;;;;;;;2.03;1.30;;;;;;;23.66;nan;62199.06;5055130;28;20196;-64
2023/09/27 07:52:54;;;;;;;1.15;1.13;;;;;;;23.55;nan;62077.50;5054675;28;20173;-65
2023/09/27 07:55:21;;;;;;;1.95;1.75;;;;;;;23.77;nan;62342.09;5054992;28;20573;-61
2023/09/27 07:57:47;;;;;;;1.63;1.38;;;;;;;23.65;nan;62067.47;5054228;28;20218;-63
2023/09/27 08:00:15;;;;;;;1.65;1.17;;;;;;;23.67;nan;62247.75;5054263;28;20179;-65
2023/09/27 08:02:45;;;;;;;2.60;1.45;;;;;;;23.65;nan;62351.88;5054778;28;20178;-61
2023/09/27 08:05:11;;;;;;;6.75;2.90;;;;;;;23.97;nan;62126.81;5054498;28;20202;-64
2023/09/27 08:07:39;;;;;;;3.03;1.67;;;;;;;24.04;nan;62271.13;5054926;28;20232;-65
2023/09/27 08:10:06;;;;;;;1.40;1.27;;;;;;;24.33;nan;62135.94;5054587;28;20281;-64
2023/09/27 08:12:33;;;;;;;3.78;2.50;;;;;;;24.65;nan;62272.25;5054215;28;20181;-63
2023/09/27 08:15:03;;;;;;;1.23;1.00;;;;;;;24.66;nan;62309.44;5053939;28;20491;-64
2023/09/27 08:17:29;;;;;;;1.15;1.00;;;;;;;24.65;nan;62212.16;5054768;28;20203;-63
2023/09/27 08:19:55;;;;;;;1.08;1.00;;;;;;;24.42;nan;62358.38;5054875;28;20778;-62
2023/09/27 08:22:20;;;;;;;1.42;1.27;;;;;;;24.45;nan;62241.63;5054521;28;20261;-64
2023/09/27 08:24:45;;;;;;;1.42;1.10;;;;;;;24.54;nan;62206.91;5054047;28;20701;-64
2023/09/27 08:27:11;;;;;;;2.67;1.58;;;;;;;24.84;nan;62264.63;5054747;28;20205;-63
2023/09/27 08:29:36;;;;;;;1.20;1.10;;;;;;;25.22;nan;62333.03;5053624;28;20661;-63
2023/09/27 08:32:02;;;;;;;1.27;1.17;;;;;;;25.12;nan;62292.81;5054302;28;20155;-64
2023/09/27 08:34:27;;;;;;;1.40;1.23;;;;;;;25.22;nan;62438.22;5049611;28;20258;-65
2023/09/27 08:36:53;;;;;;;1.45;1.35;;;;;;;25.58;nan;62336.94;5033723;28;20186;-63
2023/09/27 08:39:18;;;;;;;1.98;1.35;;;;;;;25.75;nan;62479.41;5033346;28;20175;-65
2023/09/27 08:41:44;;;;;;;1.70;1.00;;;;;;;25.77;nan;62416.78;5033434;28;20186;-64
2023/09/27 08:44:11;;;;;;;14.65;1.98;;;;;;;25.92;nan;62384.19;5033088;28;20156;-64
2023/09/27 08:46:38;;;;;;;1.88;1.27;;;;;;;26.38;nan;62368.03;5033314;28;20313;-65
2023/09/27 08:49:04;;;;;;;1.10;0.98;;;;;;;26.55;nan;62436.66;5033380;28;20171;-63
2023/09/27 08:51:30;;;;;;;1.20;0.95;;;;;;;26.78;nan;62554.16;5033561;28;20709;-64
2023/09/27 08:53:56;;;;;;;1.65;1.00;;;;;;;26.89;nan;62723.59;5032011;28;20182;-65
2023/09/27 08:56:23;;;;;;;2.35;1.63;;;;;;;26.78;nan;62483.34;5035576;28;20540;-62
2023/09/27 08:58:48;;;;;;;1.15;1.00;;;;;;;27.02;nan;62528.63;5047082;28;20640;-64
2023/09/27 09:01:14;;;;;;;1.30;1.20;;;;;;;26.88;nan;62567.69;5033069;28;20258;-65
2023/09/27 09:03:41;;;;;;;1.88;1.30;;;;;;;26.96;nan;62585.28;5044130;28;20190;-62
2023/09/27 09:06:11;;;;;;;2.08;1.20;;;;;;;26.87;nan;62545.56;5053212;28;20210;-64
2023/09/27 09:08:40;;;;;;;1.17;1.00;;;;;;;26.76;nan;62502.06;5053014;28;20171;-63
2023/09/27 09:11:09;;;;;;;1.38;1.05;;;;;;;26.71;nan;62622.78;5052741;28;20247;-64
2023/09/27 09:13:54;;;;;;;1.75;1.10;;;;;;;27.04;nan;62717.19;5053011;28;20245;-63
2023/09/27 09:16:23;;;;;;;1.60;1.13;;;;;;;27.32;nan;62683.69;5052735;28;20166;-64
2023/09/27 09:18:51;;;;;;;1.20;1.10;;;;;;;27.53;nan;62691.44;5052937;28;20181;-64
2023/09/27 09:21:18;;;;;;;1.50;1.30;;;;;;;27.83;nan;62686.44;5052269;28;20213;-62
2023/09/27 09:23:48;;;;;;;1.30;1.10;;;;;;;27.75;nan;62721.91;5052458;28;20245;-62
2023/09/27 09:26:26;;;;;;;1.80;1.30;;;;;;;27.34;nan;62630.28;5052418;28;20565;-64
2023/09/27 09:28:59;;;;;;;1.20;1.00;;;;;;;27.02;nan;62468.84;5052539;28;20172;-63
2023/09/27 09:31:28;;;;;;;1.08;1.00;;;;;;;26.99;nan;62554.63;5052625;28;20618;-62
2023/09/27 09:34:05;;;;;;;1.10;1.00;;;;;;;26.92;nan;62556.53;5052033;28;20640;-64
2023/09/27 09:36:31;;;;;;;2.28;1.17;;;;;;;26.88;nan;62610.22;5052263;28;20547;-66
2023/09/27 09:39:17;;;;;;;1.02;0.93;;;;;;;26.72;nan;62633.84;5052088;28;20237;-63
2023/09/27 09:42:02;;;;;;;1.40;1.10;;;;;;;26.60;nan;62515.22;5051977;28;20567;-62
2023/09/27 09:44:28;;;;;;;1.63;1.10;;;;;;;26.44;nan;62478.59;5052012;28;20204;-62
2023/09/27 09:46:54;;;;;;;1.00;0.82;;;;;;;26.68;nan;62527.00;5052433;28;20175;-61
2023/09/27 09:49:21;;;;;;;1.10;1.00;;;;;;;26.95;nan;62673.34;5050836;28;20265;-64
2023/09/27 09:51:52;;;;;;;0.93;0.85;;;;;;;27.33;nan;62634.38;5033729;28;20663;-65
2023/09/27 09:54:27;;;;;;;2.13;1.70;;;;;;;26.51;nan;62474.03;5018516;28;20565;-63
2023/09/27 09:56:57;;;;;;;1.30;1.20;;;;;;;26.21;nan;62613.28;5051491;28;20225;-64
2023/09/27 09:59:33;;;;;;;1.50;1.20;;;;;;;26.56;nan;62482.38;5042034;28;20176;-63
2023/09/27 10:02:04;;;;;;;0.90;0.80;;;;;;;26.87;nan;62584.91;5032027;28;20279;-64
2023/09/27 10:04:31;;;;;;;1.55;1.20;;;;;;;26.92;nan;62633.16;5031736;28;20170;-64
2023/09/27 10:06:58;;;;;;;1.20;1.05;;;;;;;26.95;nan;62549.47;5031561;28;20174;-63
2023/09/27 10:09:28;;;;;;;1.25;1.15;;;;;;;27.56;nan;62637.13;5031543;28;20162;-64
2023/09/27 10:11:55;;;;;;;1.02;0.98;;;;;;;27.63;nan;62668.75;5031720;28;20233;-63
2023/09/27 10:14:21;;;;;;;0.88;0.88;;;;;;;27.77;nan;62852.94;5031707;28;20182;-63
2023/09/27 10:16:48;;;;;;;0.90;0.85;;;;;;;28.01;nan;62793.78;5032099;28;20177;-63
2023/09/27 10:19:27;;;;;;;1.55;1.20;;;;;;;28.18;nan;62735.91;5031869;28;20170;-63
2023/09/27 10:22:05;;;;;;;2.05;1.33;;;;;;;28.07;nan;62779.03;5031405;28;20245;-61
2023/09/27 10:24:34;;;;;;;1.45;1.15;;;;;;;27.90;nan;62743.78;5031168;28;20171;-63
2023/09/27 10:27:00;;;;;;;1.42;1.00;;;;;;;28.21;nan;62742.56;5031394;28;20273;-62
2023/09/27 10:29:27;;;;;;;2.05;1.10;;;;;;;28.30;nan;62833.81;5031319;28;20187;-64
2023/09/27 10:31:58;;;;;;;1.17;1.08;;;;;;;28.24;nan;62795.38;5031551;28;20652;-61
2023/09/27 10:34:30;;;;;;;1.13;1.02;;;;;;;28.07;nan;62760.66;5030930;28;20195;-62
2023/09/27 10:37:00;;;;;;;2.20;1.50;;;;;;;28.18;nan;62709.63;5031468;28;20573;-65
2023/09/27 10:39:26;;;;;;;1.20;1.10;;;;;;;28.29;nan;62833.25;5028364;28;20737;-64
2023/09/27 10:41:53;;;;;;;2.05;1.00;;;;;;;28.45;nan;62785.28;5031188;28;20171;-64
2023/09/27 10:44:30;;;;;;;1.30;1.20;;;;;;;27.95;nan;62755.34;5031057;28;20572;-65
2023/09/27 10:46:57;;;;;;;1.08;0.98;;;;;;;27.28;nan;62707.97;5030830;28;20265;-64
2023/09/27 10:49:25;;;;;;;1.48;0.98;;;;;;;27.21;nan;62561.41;5031026;28;20198;-64
2023/09/27 10:51:52;;;;;;;1.70;1.30;;;;;;;27.32;nan;62638.50;5029792;28;20182;-65
2023/09/27 10:54:24;;;;;;;1.05;0.95;;;;;;;27.56;nan;62747.97;5031216;28;20236;-64
2023/09/27 10:56:55;;;;;;;1.67;1.20;;;;;;;27.90;nan;62723.34;5031180;28;20218;-64
2023/09/27 10:59:28;;;;;;;1.40;0.95;;;;;;;27.94;nan;62730.56;5031112;28;20614;-64
2023/09/27 11:01:58;;;;;;;1.40;1.02;;;;;;;27.84;nan;62700.13;5031299;28;20201;-64
2023/09/27 11:04:25;;;;;;;1.00;0.90;;;;;;;28.02;nan;62957.84;5031277;28;20200;-64
2023/09/27 11:06:52;;;;;;;1.20;1.10;;;;;;;27.50;nan;62833.00;5031435;28;20322;-65
2023/09/27 11:09:23;;;;;;;1.75;1.38;;;;;;;27.51;nan;62626.72;5031258;28;20550;-62
2023/09/27 11:11:50;;;;;;;1.50;1.13;;;;;;;27.54;nan;62545.53;5030671;28;20159;-65
2023/09/27 11:14:32;;;;;;;1.58;1.05;;;;;;;27.60;nan;62634.41;5031224;28;20702;-63
2023/09/27 11:17:16;;;;;;;1.42;1.20;;;;;;;28.12;nan;62850.50;5031710;28;20225;-64
2023/09/27 11:19:41;;;;;;;1.17;1.02;;;;;;;28.02;nan;62865.31;5035048;28;20170;-63
2023/09/27 11:22:07;;;;;;;1.60;1.08;;;;;;;27.29;nan;62871.84;5035042;28;20171;-63
2023/09/27 11:24:40;;;;;;;1.92;1.17;;;;;;;27.28;nan;62700.09;5034690;28;21037;-62
2023/09/27 11:27:09;;;;;;;1.30;0.98;;;;;;;27.64;nan;62706.69;5034781;28;20179;-63
2023/09/27 11:29:35;;;;;;;1.27;1.10;;;;;;;27.89;nan;62724.81;5035186;28;20354;-62
2023/09/27 11:32:01;;;;;;;1.20;1.00;;;;;;;24.98;nan;64307.19;5034843;28;20270;-63
2023/09/27 11:34:26;;;;;;;1.60;1.10;;;;;;;28.39;nan;62815.78;5034619;28;20182;-63
2023/09/27 11:36:53;;;;;;;1.20;1.10;;;;;;;28.93;nan;62858.22;5034582;28;20261;-63
2023/09/27 11:39:26;;;;;;;1.35;1.00;;;;;;;28.61;nan;62916.19;5034368;28;20165;-63
2023/09/27 11:41:56;;;;;;;1.20;1.10;;;;;;;28.22;nan;62730.56;5033047;28;20752;-64
2023/09/27 11:44:23;;;;;;;1.20;1.10;;;;;;;27.99;nan;62704.75;5034869;28;20182;-63
2023/09/27 11:46:50;;;;;;;1.23;1.13;;;;;;;27.85;nan;62620.41;5034728;28;20171;-63
2023/09/27 11:49:18;;;;;;;1.90;1.13;;;;;;;28.17;nan;62772.13;5034208;28;20300;-63
2023/09/27 11:51:44;;;;;;;1.17;1.00;;;;;;;28.29;nan;62690.69;5034417;28;20907;-63